METAR AND TAF INFORMATION
METAR FOR CYDC
ADDS - METARS form results

(2308 UTC 18 November 2017)
Data provider http://aviationweather.gov/adds/metars/
 
METAR text: CYDC 182300Z 12003KT 090V210 25SM SCT065 BKN280 06/M03 A3006 RMK CU3CI3 CONTRAILS SLP198
Conditions at: CYDC (PRINCETON , BC, CA) observed 2300 UTC 18 November 2017
Temperature: 6.0°C (43°F)
Dewpoint: -3.0°C (27°F) [RH = 52%]
Pressure (altimeter): 30.06 inches Hg (1018.0 mb)
[Sea-level pressure: 1019.8 mb]
Winds: from the ESE (120 degrees) at 3 MPH (3 knots; 1.6 m/s)
Visibility: 25 miles (40 km)
Ceiling: 28000 feet AGL
Clouds: scattered clouds at 6500 feet AGL
broken clouds at 28000 feet AGL
Weather: no significant weather observed at this time

 AIRPORT MAP

 RUNWAY INFORMATION
Runway 04 Runway length 3932 ft Runway width 75 ft
Runway elevation 2298 ft Runway displaced threshold 0 ft Runway heading 50
Runway 22 Runway length 3932 ft Runway width 75 ft
Runway elevation 2288 ft Runway displaced threshold 0 ft Runway heading 230

 AIRPORT FREQUENCIES
Type ATF Name ATF Frequency 123.2 MHZ
Type CNTR Name VANCOUVER Frequency 135 MHZ
Type RCO Name PACIFIC RD Frequency 125.85 MHZ

 AIRPORT NEAR NAVIGATION AIDS
Type NDB Name Princeton Frequency 326 KHZ
Type VORTAC Name Princeton Frequency 113900 KHZ



Powered by Virtual Airlines Manager [v2.6.2]

SI TIENES ALGUNA DUDA SOBRE LA WEB CONTACTA: webmaster@taca-virtual.org